createdAt,value
2018-05-14T00:02:00.523Z,88.10
2018-05-14T00:04:27.988Z,88.21
2018-05-14T00:06:55.393Z,88.11
2018-05-14T00:09:22.809Z,88.02
2018-05-14T00:11:50.251Z,88.38
2018-05-14T00:14:17.659Z,88.66
2018-05-14T00:16:45.448Z,88.61
2018-05-14T00:19:12.852Z,88.48
2018-05-14T00:21:40.260Z,89.06
2018-05-14T00:24:07.684Z,89.11
2018-05-14T00:26:35.140Z,89.40
2018-05-14T00:29:02.581Z,89.23
2018-05-14T00:31:29.992Z,89.15
2018-05-14T00:33:57.409Z,89.06
2018-05-14T00:36:24.832Z,89.11
2018-05-14T00:38:52.237Z,89.09
2018-05-14T00:41:19.668Z,88.98
2018-05-14T00:43:47.076Z,89.08
2018-05-14T00:46:14.517Z,88.90
2018-05-14T00:48:41.932Z,89.37
2018-05-14T00:51:09.621Z,89.31
2018-05-14T00:53:37.037Z,89.40
2018-05-14T00:56:04.450Z,89.20
2018-05-14T00:58:31.879Z,89.32
2018-05-14T01:00:59.283Z,89.23
2018-05-14T01:03:26.715Z,89.43
2018-05-14T01:05:54.120Z,89.57
2018-05-14T01:08:21.545Z,89.79
2018-05-14T01:10:48.963Z,89.52
2018-05-14T01:13:16.369Z,89.25
2018-05-14T01:15:43.939Z,89.49
2018-05-14T01:18:11.348Z,89.32
2018-05-14T01:20:38.744Z,89.10
2018-05-14T01:23:06.168Z,88.83
2018-05-14T01:25:33.593Z,89.29
2018-05-14T01:28:01.088Z,89.23
2018-05-14T01:30:28.415Z,89.22
2018-05-14T01:32:55.850Z,89.19
2018-05-14T01:35:23.263Z,89.39
2018-05-14T01:37:50.692Z,89.04
2018-05-14T01:40:18.115Z,89.30
2018-05-14T01:42:45.552Z,89.81
2018-05-14T01:45:12.973Z,89.87
2018-05-14T01:47:40.408Z,90.11
2018-05-14T01:50:07.823Z,90.47
2018-05-14T01:52:35.540Z,90.24
2018-05-14T01:55:02.951Z,89.99
2018-05-14T01:57:30.356Z,89.76
2018-05-14T01:59:57.781Z,89.81
2018-05-14T02:02:25.210Z,90.14
2018-05-14T02:04:52.627Z,90.39
2018-05-14T02:07:20.032Z,90.02
2018-05-14T02:09:47.740Z,89.73
2018-05-14T02:12:15.152Z,89.87
2018-05-14T02:14:42.553Z,90.27
2018-05-14T02:17:09.976Z,90.12
2018-05-14T02:19:37.397Z,89.97
2018-05-14T02:22:04.806Z,89.55
2018-05-14T02:24:32.275Z,89.70
2018-05-14T02:26:59.652Z,89.58
2018-05-14T02:29:27.187Z,88.93
2018-05-14T02:31:54.585Z,88.84
2018-05-14T02:34:21.993Z,89.18
2018-05-14T02:36:49.486Z,89.29
2018-05-14T02:39:16.909Z,88.99
2018-05-14T02:41:44.324Z,88.95
2018-05-14T02:44:11.751Z,88.86
2018-05-14T02:46:39.163Z,88.90
2018-05-14T02:49:06.576Z,88.92
2018-05-14T02:51:34.316Z,89.20
2018-05-14T02:54:01.727Z,89.52
2018-05-14T02:56:29.152Z,89.10
2018-05-14T02:58:56.589Z,89.39
2018-05-14T03:01:24.009Z,89.28
2018-05-14T03:03:51.641Z,89.34
2018-05-14T03:06:19.067Z,88.80
2018-05-14T03:08:46.480Z,89.34
2018-05-14T03:11:13.920Z,89.14
2018-05-14T03:13:41.325Z,89.22
2018-05-14T03:16:08.746Z,89.22
2018-05-14T03:18:36.161Z,88.76
2018-05-14T03:21:03.583Z,88.79
2018-05-14T03:23:30.980Z,89.55
2018-05-14T03:25:58.407Z,89.72
2018-05-14T03:28:25.823Z,89.51
2018-05-14T03:30:53.242Z,89.61
2018-05-14T03:33:20.643Z,89.21
2018-05-14T03:35:48.077Z,89.12
2018-05-14T03:38:15.495Z,89.40
2018-05-14T03:40:42.919Z,89.10
2018-05-14T03:43:10.344Z,89.05
2018-05-14T03:45:37.825Z,88.93
2018-05-14T03:48:05.241Z,88.37
2018-05-14T03:50:32.653Z,88.84
2018-05-14T03:53:00.060Z,88.95
2018-05-14T03:55:27.628Z,88.96
2018-05-14T03:57:55.043Z,88.43
2018-05-14T04:00:34.232Z,88.43
2018-05-14T04:03:13.354Z,88.69
2018-05-14T04:05:52.552Z,88.25
2018-05-14T04:08:20.037Z,87.63
2018-05-14T04:10:47.381Z,87.50
2018-05-14T04:13:14.788Z,87.38
2018-05-14T04:15:42.193Z,87.38
2018-05-14T04:18:09.625Z,87.22
2018-05-14T04:20:37.032Z,87.54
2018-05-14T04:23:04.448Z,87.64
2018-05-14T04:25:31.879Z,87.45
2018-05-14T04:27:59.284Z,87.07
2018-05-14T04:30:26.704Z,87.24
2018-05-14T04:32:54.121Z,87.29
2018-05-14T04:35:21.549Z,87.22
2018-05-14T04:37:48.963Z,86.46
2018-05-14T04:40:16.383Z,86.46
2018-05-14T04:42:43.792Z,86.65
2018-05-14T04:45:12.723Z,86.54
2018-05-14T04:47:40.147Z,86.18
2018-05-14T04:50:07.556Z,85.61
2018-05-14T04:52:34.979Z,85.56
2018-05-14T04:55:02.403Z,85.04
2018-05-14T04:57:29.815Z,85.40
2018-05-14T04:59:57.240Z,85.05
2018-05-14T05:02:24.643Z,84.01
2018-05-14T05:04:52.082Z,82.50
2018-05-14T05:07:19.510Z,82.23
2018-05-14T05:09:46.910Z,81.32
2018-05-14T05:12:14.367Z,81.53
2018-05-14T05:14:41.768Z,81.99
2018-05-14T05:17:09.284Z,80.42
2018-05-14T05:19:36.601Z,77.59
2018-05-14T05:22:04.019Z,76.80
2018-05-14T05:24:31.875Z,74.57
2018-05-14T05:26:59.276Z,74.16
2018-05-14T05:29:26.831Z,71.92
2018-05-14T05:31:54.244Z,66.26
2018-05-14T05:34:21.648Z,63.61
2018-05-14T05:36:49.064Z,61.52
2018-05-14T05:39:16.627Z,60.90
2018-05-14T05:41:44.034Z,63.05
2018-05-14T05:44:11.444Z,60.04
2018-05-14T05:46:38.892Z,59.51
2018-05-14T05:49:06.315Z,59.64
2018-05-14T05:51:33.733Z,56.32
2018-05-14T05:54:01.156Z,57.88
2018-05-14T05:56:28.584Z,55.05
2018-05-14T05:58:56.056Z,50.65
2018-05-14T06:01:23.499Z,52.22
2018-05-14T06:03:50.904Z,53.79
2018-05-14T06:06:18.328Z,53.20
2018-05-14T06:08:45.892Z,51.86
2018-05-14T06:11:13.320Z,51.53
2018-05-14T06:13:40.736Z,52.51
2018-05-14T06:16:08.163Z,52.64
2018-05-14T06:18:35.600Z,53.23
2018-05-14T06:21:03.016Z,53.19
2018-05-14T06:23:30.432Z,51.72
2018-05-14T06:25:57.869Z,50.37
2018-05-14T06:28:25.300Z,51.48
2018-05-14T06:30:52.730Z,50.07
2018-05-14T06:33:20.141Z,50.35
2018-05-14T06:35:47.584Z,51.63
2018-05-14T06:38:15.144Z,51.85
2018-05-14T06:40:42.564Z,49.73
2018-05-14T06:43:09.980Z,49.38
2018-05-14T06:45:37.616Z,47.29
2018-05-14T06:48:04.877Z,46.94
2018-05-14T06:50:32.303Z,47.62
2018-05-14T06:52:59.744Z,47.23
2018-05-14T06:55:27.172Z,47.13
2018-05-14T06:57:54.592Z,47.18
2018-05-14T07:00:22.018Z,46.61
2018-05-14T07:02:49.424Z,45.37
2018-05-14T07:05:17.159Z,44.48
2018-05-14T07:07:44.574Z,44.31
2018-05-14T07:10:11.981Z,44.23
2018-05-14T07:12:39.399Z,43.87
2018-05-14T07:15:06.808Z,45.54
2018-05-14T07:17:34.242Z,43.41
2018-05-14T07:20:01.640Z,45.56
2018-05-14T07:22:29.080Z,46.15
2018-05-14T07:24:56.491Z,46.15
2018-05-14T07:27:24.224Z,45.76
2018-05-14T07:29:51.641Z,44.64
2018-05-14T07:32:19.054Z,43.58
2018-05-14T07:34:46.483Z,45.17
2018-05-14T07:37:13.903Z,42.74
2018-05-14T07:39:41.372Z,43.23
2018-05-14T07:42:08.788Z,41.77
2018-05-14T07:44:36.197Z,40.83
2018-05-14T07:47:03.604Z,40.56
2018-05-14T07:49:31.549Z,41.80
2018-05-14T07:51:58.947Z,40.52
2018-05-14T07:54:26.416Z,41.05
2018-05-14T07:56:53.989Z,41.50
2018-05-14T07:59:21.401Z,40.89
2018-05-14T08:01:48.808Z,41.69
2018-05-14T08:04:16.228Z,41.92
2018-05-14T08:06:43.651Z,41.31
2018-05-14T08:09:11.079Z,43.05
2018-05-14T08:11:38.553Z,43.86
2018-05-14T08:14:05.908Z,42.97
2018-05-14T08:16:33.895Z,44.49
2018-05-14T08:19:01.312Z,44.56
2018-05-14T08:21:28.871Z,43.37
2018-05-14T08:23:56.285Z,44.37
2018-05-14T08:26:23.688Z,43.88
2018-05-14T08:28:51.111Z,43.82
2018-05-14T08:31:18.554Z,44.00
2018-05-14T08:33:45.960Z,44.70
2018-05-14T08:36:13.387Z,44.51
2018-05-14T08:38:40.802Z,41.48
2018-05-14T08:41:08.229Z,42.78
2018-05-14T08:43:35.651Z,42.07
2018-05-14T08:46:03.064Z,43.60
2018-05-14T08:48:30.493Z,44.26
2018-05-14T08:50:57.900Z,42.98
2018-05-14T08:53:25.455Z,43.95
2018-05-14T08:55:52.735Z,45.01
2018-05-14T08:58:20.143Z,44.41
2018-05-14T09:00:47.615Z,44.84
2018-05-14T09:03:14.989Z,45.12
2018-05-14T09:05:42.411Z,44.93
2018-05-14T09:08:09.840Z,44.63
2018-05-14T09:10:37.250Z,43.87
2018-05-14T09:13:04.683Z,42.69
2018-05-14T09:15:32.093Z,42.54
2018-05-14T09:17:59.505Z,43.75
2018-05-14T09:20:27.228Z,41.94
2018-05-14T09:22:54.637Z,40.14
2018-05-14T09:25:22.045Z,39.98
2018-05-14T09:27:49.490Z,39.28
2018-05-14T09:30:16.904Z,39.20
2018-05-14T09:32:44.332Z,40.50
2018-05-14T09:35:11.840Z,38.89
2018-05-14T09:37:39.247Z,38.16
2018-05-14T09:40:06.651Z,37.63
2018-05-14T09:42:34.371Z,36.76
2018-05-14T09:45:01.781Z,35.56
2018-05-14T09:47:29.196Z,32.83
2018-05-14T09:49:56.865Z,33.28
2018-05-14T09:52:24.280Z,33.53
2018-05-14T09:54:51.700Z,34.27
2018-05-14T09:57:19.837Z,34.04
2018-05-14T09:59:47.267Z,33.75
2018-05-14T10:02:14.769Z,34.00
2018-05-14T10:04:42.198Z,36.32
2018-05-14T10:07:09.618Z,35.80
2018-05-14T10:09:37.021Z,36.14
2018-05-14T10:12:04.431Z,36.06
2018-05-14T10:14:31.868Z,37.28
2018-05-14T10:16:59.456Z,37.34
2018-05-14T10:19:26.935Z,37.61
2018-05-14T10:21:54.424Z,37.59
2018-05-14T10:24:21.865Z,36.46
2018-05-14T10:26:49.343Z,36.56
2018-05-14T10:29:16.772Z,37.94
2018-05-14T10:31:44.229Z,37.53
2018-05-14T10:34:11.625Z,37.00
2018-05-14T10:36:39.093Z,36.46
2018-05-14T10:39:07.339Z,37.03
2018-05-14T10:41:34.805Z,36.52
2018-05-14T10:44:02.216Z,37.16
2018-05-14T10:46:29.617Z,36.23
2018-05-14T10:48:57.044Z,35.55
2018-05-14T10:51:24.451Z,32.64
2018-05-14T10:53:51.880Z,30.84
2018-05-14T10:56:19.275Z,32.41
2018-05-14T10:58:46.887Z,32.02
2018-05-14T11:01:14.209Z,31.02
2018-05-14T11:03:41.619Z,31.37
2018-05-14T11:06:09.024Z,30.91
2018-05-14T11:08:36.423Z,29.73
2018-05-14T11:11:03.833Z,30.86
2018-05-14T11:13:31.240Z,31.14
2018-05-14T11:15:58.635Z,29.25
2018-05-14T11:18:26.055Z,30.06
2018-05-14T11:20:53.461Z,30.76
2018-05-14T11:23:20.879Z,29.76
2018-05-14T11:25:48.275Z,30.41
2018-05-14T11:28:15.850Z,30.04
2018-05-14T11:30:43.257Z,28.61
2018-05-14T11:33:10.656Z,29.10
2018-05-14T11:35:38.063Z,29.81
2018-05-14T11:38:07.938Z,29.05
2018-05-14T11:40:36.116Z,27.98
2018-05-14T11:43:03.532Z,28.42
2018-05-14T11:45:31.468Z,28.47
2018-05-14T11:47:58.883Z,29.14
2018-05-14T11:50:26.327Z,30.47
2018-05-14T11:52:53.743Z,30.44
2018-05-14T11:55:21.144Z,30.33
2018-05-14T11:57:48.580Z,30.85
2018-05-14T12:00:16.008Z,30.39
2018-05-14T12:02:43.479Z,28.91
2018-05-14T12:05:10.836Z,29.37
2018-05-14T12:07:38.255Z,29.98
2018-05-14T12:10:05.729Z,29.62
2018-05-14T12:12:33.464Z,29.42
2018-05-14T12:15:00.868Z,30.21
2018-05-14T12:17:28.308Z,30.35
2018-05-14T12:19:56.016Z,29.98
2018-05-14T12:22:24.360Z,30.30
2018-05-14T12:24:51.766Z,30.46
2018-05-14T12:27:19.199Z,31.18
2018-05-14T12:29:46.598Z,31.50
2018-05-14T12:32:14.028Z,31.60
2018-05-14T12:34:41.446Z,31.29
2018-05-14T12:37:08.860Z,31.69
2018-05-14T12:39:36.256Z,32.38
2018-05-14T12:42:03.673Z,31.38
2018-05-14T12:44:31.091Z,30.22
2018-05-14T12:46:58.493Z,30.80
2018-05-14T12:49:25.900Z,30.49
2018-05-14T12:51:53.360Z,30.41
2018-05-14T12:54:20.727Z,30.50
2018-05-14T12:56:48.131Z,31.06
2018-05-14T12:59:15.532Z,30.28
2018-05-14T13:01:42.953Z,29.98
2018-05-14T13:04:10.356Z,30.09
2018-05-14T13:06:37.781Z,29.89
2018-05-14T13:09:05.208Z,29.59
2018-05-14T13:11:32.642Z,29.91
2018-05-14T13:14:00.043Z,29.43
2018-05-14T13:16:27.447Z,28.81
2018-05-14T13:18:54.992Z,28.42
2018-05-14T13:21:22.409Z,29.13
2018-05-14T13:23:49.809Z,29.52
2018-05-14T13:26:17.282Z,29.10
2018-05-14T13:28:44.648Z,29.61
2018-05-14T13:31:12.224Z,29.00
2018-05-14T13:33:39.623Z,29.99
2018-05-14T13:36:07.037Z,29.23
2018-05-14T13:38:34.455Z,29.11
2018-05-14T13:41:01.862Z,29.64
2018-05-14T13:43:29.279Z,29.93
2018-05-14T13:45:56.709Z,29.35
2018-05-14T13:48:24.118Z,29.97
2018-05-14T13:50:51.586Z,28.62
2018-05-14T13:53:18.936Z,28.48
2018-05-14T13:55:46.350Z,29.60
2018-05-14T13:58:13.760Z,30.09
2018-05-14T14:00:41.169Z,30.23
2018-05-14T14:03:08.600Z,29.90
2018-05-14T14:05:36.001Z,29.72
2018-05-14T14:08:03.424Z,30.42
2018-05-14T14:10:30.827Z,30.51
2018-05-14T14:12:58.236Z,30.60
2018-05-14T14:15:25.661Z,30.21
2018-05-14T14:17:53.059Z,31.13
2018-05-14T14:20:20.472Z,30.73
2018-05-14T14:22:47.893Z,30.61
2018-05-14T14:25:15.307Z,30.12
2018-05-14T14:27:42.713Z,29.44
2018-05-14T14:30:11.299Z,30.03
2018-05-14T14:32:38.703Z,30.16
2018-05-14T14:35:06.124Z,30.15
2018-05-14T14:37:33.528Z,30.50
2018-05-14T14:40:03.668Z,30.13
2018-05-14T14:42:31.084Z,31.23
2018-05-14T14:44:58.480Z,30.77
2018-05-14T14:47:25.903Z,31.47
2018-05-14T14:49:53.307Z,29.62
2018-05-14T14:52:20.864Z,30.33
2018-05-14T14:54:48.279Z,30.17
2018-05-14T14:57:15.809Z,29.99
2018-05-14T14:59:43.237Z,30.52
2018-05-14T15:05:01.213Z,30.48
2018-05-14T15:07:28.786Z,30.26
2018-05-14T15:09:56.290Z,30.90
2018-05-14T15:12:23.777Z,30.55
2018-05-14T15:14:51.177Z,30.45
2018-05-14T15:17:18.638Z,30.73
2018-05-14T15:19:46.056Z,30.81
2018-05-14T15:22:13.464Z,30.74
2018-05-14T15:24:40.879Z,30.17
2018-05-14T15:27:08.284Z,30.40
2018-05-14T15:29:35.695Z,29.35
2018-05-14T15:32:03.119Z,29.53
2018-05-14T15:34:30.626Z,30.07
2018-05-14T15:36:58.075Z,30.51
2018-05-14T15:39:25.535Z,30.98
2018-05-14T15:41:52.920Z,30.41
2018-05-14T15:44:20.339Z,29.43
2018-05-14T15:46:47.748Z,29.98
2018-05-14T15:49:15.204Z,30.48
2018-05-14T15:51:42.852Z,30.31
2018-05-14T15:54:10.313Z,30.23
2018-05-14T15:56:37.727Z,30.55
2018-05-14T15:59:05.213Z,30.26
2018-05-14T16:01:32.678Z,30.73
2018-05-14T16:04:00.420Z,30.37
2018-05-14T16:06:27.876Z,31.13
2018-05-14T16:08:55.396Z,31.21
2018-05-14T16:11:22.817Z,31.48
2018-05-14T16:13:50.465Z,30.80
2018-05-14T16:16:17.882Z,30.88
2018-05-14T16:18:45.499Z,30.42
2018-05-14T16:21:13.162Z,30.24
2018-05-14T16:23:40.578Z,29.21
2018-05-14T16:26:08.169Z,29.34
2018-05-14T16:28:35.689Z,29.95
2018-05-14T16:31:03.128Z,29.95
2018-05-14T16:33:30.527Z,29.61
2018-05-14T16:35:59.051Z,30.32
2018-05-14T16:38:26.535Z,30.59
2018-05-14T16:40:54.095Z,30.13
2018-05-14T16:43:21.492Z,30.47
2018-05-14T16:45:48.897Z,30.58
2018-05-14T16:48:16.333Z,30.59
2018-05-14T16:50:43.752Z,30.41
2018-05-14T16:53:11.177Z,29.96
2018-05-14T16:55:38.602Z,30.68
2018-05-14T16:58:06.064Z,30.37
2018-05-14T17:00:33.478Z,30.92
2018-05-14T17:03:01.092Z,31.37
2018-05-14T17:05:28.692Z,31.15
2018-05-14T17:07:56.159Z,31.62
2018-05-14T17:10:23.616Z,31.51
2018-05-14T17:12:50.993Z,31.06
2018-05-14T17:15:18.413Z,30.95
2018-05-14T17:17:45.844Z,30.96
2018-05-14T17:20:13.268Z,31.16
2018-05-14T17:22:40.672Z,31.42
2018-05-14T17:25:08.096Z,30.71
2018-05-14T17:27:35.499Z,30.67
2018-05-14T17:30:03.128Z,31.01
2018-05-14T17:32:30.532Z,31.01
2018-05-14T17:34:57.940Z,31.09
2018-05-14T17:37:25.384Z,31.68
2018-05-14T18:22:21.090Z,33.94
2018-05-14T18:24:51.375Z,34.11
2018-05-14T18:27:38.635Z,34.09
2018-05-14T18:30:11.616Z,34.03
2018-05-14T18:32:40.053Z,33.95
2018-05-14T18:35:13.056Z,34.17
2018-05-14T18:37:40.548Z,33.98
2018-05-14T18:40:07.986Z,34.21
2018-05-14T18:42:36.178Z,34.23
2018-05-14T18:45:03.584Z,34.09
2018-05-14T18:47:31.017Z,34.01
2018-05-14T18:49:58.470Z,34.15
2018-05-14T18:52:25.878Z,34.29
2018-05-14T18:54:53.440Z,34.33
2018-05-14T18:57:20.860Z,34.25
2018-05-14T18:59:48.267Z,34.31
2018-05-14T19:02:15.684Z,34.40
2018-05-14T19:04:43.197Z,34.58
2018-05-14T19:07:10.623Z,34.38
2018-05-14T19:09:38.073Z,34.74
2018-05-14T19:12:05.471Z,34.71
2018-05-14T19:14:32.896Z,34.39
2018-05-14T19:17:05.830Z,34.58
2018-05-14T19:19:33.331Z,34.41
2018-05-14T19:22:00.669Z,34.57
2018-05-14T19:24:28.103Z,34.75
2018-05-14T19:26:55.568Z,34.75
2018-05-14T19:29:34.163Z,35.02
2018-05-14T19:32:01.596Z,35.19
2018-05-14T19:34:34.561Z,35.19
2018-05-14T19:37:01.996Z,35.44
2018-05-14T19:39:35.022Z,35.50
2018-05-14T19:42:02.447Z,35.35
2018-05-14T19:44:29.856Z,35.42
2018-05-14T19:46:57.343Z,35.35
2018-05-14T19:49:24.907Z,35.60
2018-05-14T19:51:52.251Z,35.32
2018-05-14T19:54:19.694Z,35.37
2018-05-14T19:56:47.111Z,35.50
2018-05-14T19:59:14.524Z,35.52
2018-05-14T20:01:41.958Z,35.58
2018-05-14T20:04:09.791Z,35.73
2018-05-14T20:06:37.232Z,35.73
2018-05-14T20:09:05.229Z,35.85
2018-05-14T20:11:32.656Z,35.97
2018-05-14T20:14:00.156Z,35.93
2018-05-14T20:19:03.711Z,35.50
2018-05-14T20:21:31.113Z,35.73
2018-05-14T20:23:58.516Z,35.78
2018-05-14T20:26:25.929Z,35.78
2018-05-14T20:28:53.331Z,35.68
2018-05-14T20:31:20.780Z,35.91
2018-05-14T20:33:48.188Z,35.84
2018-05-14T20:36:15.617Z,36.01
2018-05-14T20:38:43.016Z,36.20
2018-05-14T20:41:10.425Z,36.40
2018-05-14T20:43:37.854Z,36.35
2018-05-14T20:46:05.257Z,36.33
2018-05-14T20:48:33.070Z,36.48
2018-05-14T20:51:00.471Z,36.71
2018-05-14T20:53:27.905Z,36.86
2018-05-14T20:55:55.760Z,37.01
2018-05-14T20:58:23.168Z,37.14
2018-05-14T21:00:50.576Z,37.32
2018-05-14T21:03:18.060Z,37.66
2018-05-14T21:05:45.412Z,37.94
2018-05-14T21:08:12.840Z,38.31
2018-05-14T21:10:40.347Z,38.50
2018-05-14T21:13:07.817Z,38.29
2018-05-14T21:15:35.259Z,38.60
2018-05-14T21:18:02.684Z,38.66
2018-05-14T21:20:30.084Z,38.75
2018-05-14T21:22:57.519Z,38.98
2018-05-14T21:25:24.916Z,38.86
2018-05-14T21:27:52.332Z,39.14
2018-05-14T21:30:19.931Z,39.39
2018-05-14T21:32:47.331Z,39.53
2018-05-14T21:35:14.804Z,39.30
2018-05-14T21:37:42.241Z,39.30
2018-05-14T21:40:09.677Z,39.29
2018-05-14T21:42:37.171Z,39.27
2018-05-14T21:45:04.519Z,39.26
2018-05-14T21:47:31.924Z,39.31
2018-05-14T21:49:59.421Z,39.37
2018-05-14T21:52:26.863Z,39.38
2018-05-14T21:54:54.265Z,39.49
2018-05-14T21:57:21.720Z,39.49
2018-05-14T21:59:49.120Z,39.53
2018-05-14T22:02:16.535Z,39.40
2018-05-14T22:04:43.952Z,39.45
2018-05-14T22:07:11.371Z,39.48
2018-05-14T22:09:38.808Z,39.50
2018-05-14T22:12:06.204Z,39.48
2018-05-14T22:14:33.620Z,39.45
2018-05-14T22:17:01.032Z,39.49
2018-05-14T22:19:28.456Z,39.42
2018-05-14T22:21:55.855Z,39.42
2018-05-14T22:24:23.286Z,39.14
2018-05-14T22:26:50.680Z,39.13
2018-05-14T22:29:18.107Z,39.13
2018-05-14T22:31:45.530Z,39.16
2018-05-14T22:34:12.933Z,39.20
2018-05-14T22:36:40.360Z,39.25
2018-05-14T22:39:07.806Z,39.44
2018-05-14T22:41:35.201Z,39.56
2018-05-14T22:44:03.179Z,39.72
2018-05-14T22:46:30.608Z,39.87
2018-05-14T22:48:58.042Z,40.06
2018-05-14T22:51:25.513Z,40.23
2018-05-14T22:53:52.921Z,40.33
2018-05-14T22:56:20.658Z,40.50
2018-05-14T22:58:48.073Z,40.72
2018-05-14T23:01:15.484Z,40.87
2018-05-14T23:03:42.912Z,41.11
2018-05-14T23:11:51.798Z,41.70
2018-05-14T23:17:09.485Z,42.21
2018-05-14T23:19:36.886Z,42.41
2018-05-14T23:22:04.289Z,42.48
2018-05-14T23:24:31.710Z,42.69
2018-05-14T23:26:59.107Z,42.91
2018-05-14T23:29:26.857Z,43.03
2018-05-14T23:31:54.265Z,43.29
2018-05-14T23:34:21.676Z,43.39
2018-05-14T23:36:49.263Z,43.52
2018-05-14T23:39:16.684Z,43.92
2018-05-14T23:41:44.088Z,44.03
2018-05-14T23:44:11.503Z,44.25
2018-05-14T23:46:38.915Z,44.42
2018-05-14T23:49:06.332Z,44.59
2018-05-14T23:51:33.744Z,44.74
2018-05-14T23:54:01.169Z,45.02
2018-05-14T23:56:28.588Z,46.17
2018-05-14T23:58:55.997Z,46.42
